CheckWX is a tool to help pilots better visualize weather data.  It is not intended as a substitute for an official pre-flight weather briefing.

13:01:41 UTC

EGHQ METAR
Newquay Cornwall Airport
Newquay, United Kingdom
Current

42 mins ago

EGHQ 181220Z 25012KT 9999 FEW020 10/06 Q1015
Observed
Feb-18 @ 12:20 UTC
Wind
  • 250° at 12 KTS
Visibility
10,000+ meters
Flight Rules
VFR
Cloud Levels
  • Few at 2,000' AGL
Temperature
10°C / 50°F
Dewpoint
C / 43°F
Humidity
76%
Altimeter
29.97" Hg
Pressure
1014.92 hPa
Previous

1 hour ago

EGHQ 181150Z 26011KT 9999 SCT025 10/06 Q1015
Observed
Feb-18 @ 11:50 UTC
Wind
  • 260° at 11 KTS
Visibility
10,000+ meters
Flight Rules
VFR
Cloud Levels
  • Scattered at 2,500' AGL
Temperature
10°C / 50°F
Dewpoint
C / 43°F
Humidity
76%
Altimeter
29.97" Hg
Pressure
1014.92 hPa
Previous

2 hours ago

EGHQ 181120Z 26011KT 230V290 9999 FEW018 10/07 Q1015
Observed
Feb-18 @ 11:20 UTC
Wind
  • 260° at 11 KTS
Visibility
10,000+ meters
Flight Rules
VFR
Cloud Levels
  • Few at 1,800' AGL
Temperature
10°C / 50°F
Dewpoint
C / 45°F
Humidity
82%
Altimeter
29.97" Hg
Pressure
1014.92 hPa